Time;durP1;ratioP1;P1;durP2;ratioP2;P2;SDS_P1;SDS_P2;PMS_P1;PMS_P2;Temp;Humidity;BMP_temperature;BMP_pressure;BME280_temperature;BME280_humidity;BME280_pressure;Samples;Min_cycle;Max_cycle;Signal;HPM_P1;HPM_P2
2022/03/02 00:00:12;;;;;;;102.40;39.10;;;;;;;-4.91;57.13;101537.80;130341;1268;108562;-75
2022/03/02 00:03:39;;;;;;;102.50;38.90;;;;;;;-4.94;57.27;101538.71;130321;1268;110432;-76
2022/03/02 00:06:44;;;;;;;104.10;39.70;;;;;;;-4.95;57.27;101536.48;130302;1268;108639;-74
2022/03/02 00:09:50;;;;;;;102.80;41.70;;;;;;;-5.02;56.94;101539.19;130353;1268;108869;-72
2022/03/02 00:12:56;;;;;;;100.20;39.50;;;;;;;-5.06;57.12;101539.23;130307;1268;108744;-72
2022/03/02 00:16:01;;;;;;;105.60;39.80;;;;;;;-5.08;57.09;101537.53;130351;1268;108792;-72
2022/03/02 00:19:08;;;;;;;108.00;42.60;;;;;;;-5.15;57.47;101533.80;130314;1268;108680;-73
2022/03/02 00:22:13;;;;;;;113.40;42.60;;;;;;;-5.17;57.12;101532.63;130368;1268;108785;-72
2022/03/02 00:25:19;;;;;;;113.20;42.80;;;;;;;-5.20;57.12;101527.80;130320;1267;108739;-73
2022/03/02 00:28:25;;;;;;;113.70;43.30;;;;;;;-5.17;57.22;101530.89;130306;1268;108817;-74
2022/03/02 00:31:31;;;;;;;108.60;42.50;;;;;;;-5.18;57.26;101527.61;130352;1268;108938;-72
2022/03/02 00:34:36;;;;;;;119.40;42.70;;;;;;;-5.35;56.80;101525.94;130333;1268;108812;-72
2022/03/02 00:37:42;;;;;;;118.60;43.80;;;;;;;-5.39;57.00;101528.77;130317;1268;108723;-71
2022/03/02 00:40:47;;;;;;;114.90;43.50;;;;;;;-5.41;57.29;101525.51;130325;1268;108551;-73
2022/03/02 00:43:53;;;;;;;117.90;44.10;;;;;;;-5.47;57.02;101519.68;130318;1268;108663;-71
2022/03/02 00:47:00;;;;;;;111.50;43.50;;;;;;;-5.49;57.17;101518.30;130322;1268;108619;-72
2022/03/02 00:50:07;;;;;;;109.00;40.70;;;;;;;-5.49;57.60;101520.75;130282;1268;108883;-71
2022/03/02 00:53:14;;;;;;;95.30;37.70;;;;;;;-5.47;57.33;101520.89;130302;1268;107412;-74
2022/03/02 00:56:19;;;;;;;96.50;38.00;;;;;;;-5.45;57.48;101519.84;130321;1268;108881;-74
2022/03/02 00:59:25;;;;;;;90.50;37.40;;;;;;;-5.44;57.50;101513.73;130325;1268;108053;-74
2022/03/02 01:02:30;;;;;;;97.30;36.70;;;;;;;-5.44;57.09;101510.63;130358;1268;108901;-74
2022/03/02 01:05:36;;;;;;;89.80;35.10;;;;;;;-5.53;57.10;101509.87;130337;1268;108701;-74
2022/03/02 01:08:41;;;;;;;95.30;38.10;;;;;;;-5.56;57.38;101502.80;130324;1267;108667;-74
2022/03/02 01:11:46;;;;;;;94.70;37.30;;;;;;;-5.58;57.17;101495.38;130307;1268;108672;-73
2022/03/02 01:14:52;;;;;;;99.60;36.50;;;;;;;-5.63;57.72;101493.20;130350;1268;108919;-74
2022/03/02 01:17:58;;;;;;;85.80;36.50;;;;;;;-5.64;57.70;101495.80;130292;1268;108785;-74
2022/03/02 01:21:03;;;;;;;89.60;36.70;;;;;;;-5.65;57.63;101497.20;130294;1268;108737;-71
2022/03/02 01:24:09;;;;;;;91.30;35.50;;;;;;;-5.65;57.38;101495.13;130369;1268;107694;-71
2022/03/02 01:27:14;;;;;;;89.30;34.80;;;;;;;-5.75;56.96;101488.83;130236;1268;108960;-73
2022/03/02 01:30:21;;;;;;;90.20;35.00;;;;;;;-5.75;57.78;101482.60;130325;1268;109155;-74
2022/03/02 01:33:26;;;;;;;82.00;34.60;;;;;;;-5.71;57.68;101477.52;130336;1268;108992;-72
2022/03/02 01:36:31;;;;;;;83.60;34.40;;;;;;;-5.67;58.07;101474.34;130353;1268;107511;-73
2022/03/02 01:39:37;;;;;;;83.50;32.40;;;;;;;-5.75;57.56;101473.23;130352;1268;108884;-72
2022/03/02 01:42:44;;;;;;;85.20;33.10;;;;;;;-5.79;57.45;101463.24;130309;1268;108999;-73
2022/03/02 01:45:50;;;;;;;79.20;33.20;;;;;;;-5.75;57.70;101459.02;130387;1268;108751;-72
2022/03/02 01:48:55;;;;;;;79.80;32.40;;;;;;;-5.71;58.03;101458.98;130306;1268;108718;-73
2022/03/02 01:52:00;;;;;;;80.00;32.30;;;;;;;-5.69;57.91;101452.54;130297;1268;108750;-73
2022/03/02 01:55:08;;;;;;;87.60;33.00;;;;;;;-5.67;58.22;101451.48;130342;1268;108804;-72
2022/03/02 01:58:13;;;;;;;85.40;33.20;;;;;;;-5.67;58.05;101447.84;130361;1268;108760;-73
2022/03/02 02:01:19;;;;;;;80.70;32.20;;;;;;;-5.67;57.90;101443.15;130305;1268;108703;-74
2022/03/02 02:04:25;;;;;;;82.40;32.10;;;;;;;-5.70;57.53;101443.70;130377;1267;107443;-73
2022/03/02 02:07:30;;;;;;;73.60;31.70;;;;;;;-5.73;57.77;101442.53;130365;1268;108663;-72
2022/03/02 02:10:36;;;;;;;81.50;32.00;;;;;;;-5.76;57.77;101440.33;130305;1268;108669;-72
2022/03/02 02:13:41;;;;;;;80.70;32.30;;;;;;;-5.80;57.80;101439.68;130286;1268;108984;-71
2022/03/02 02:16:47;;;;;;;77.40;31.40;;;;;;;-5.80;57.92;101439.86;130244;1268;108609;-71
2022/03/02 02:19:52;;;;;;;83.70;31.70;;;;;;;-5.82;57.64;101436.76;130189;1268;108731;-73
2022/03/02 02:22:58;;;;;;;92.30;36.30;;;;;;;-5.90;57.99;101438.59;130315;1268;107540;-71
2022/03/02 02:26:04;;;;;;;81.90;32.60;;;;;;;-5.90;58.17;101432.36;130303;1268;107373;-72
2022/03/02 02:29:10;;;;;;;84.10;33.40;;;;;;;-5.89;58.52;101429.57;130361;1268;108739;-73
2022/03/02 02:32:16;;;;;;;89.30;36.90;;;;;;;-5.88;58.57;101426.09;130340;1268;108743;-73
2022/03/02 02:35:22;;;;;;;83.70;32.40;;;;;;;-5.92;57.97;101426.84;130304;1268;107638;-73
2022/03/02 02:38:27;;;;;;;78.60;31.40;;;;;;;-6.09;57.88;101425.35;130364;1268;108748;-74
2022/03/02 02:41:33;;;;;;;82.40;32.00;;;;;;;-6.14;58.39;101420.73;130393;1268;108786;-73
2022/03/02 02:44:39;;;;;;;79.90;31.40;;;;;;;-6.12;58.15;101415.68;130331;1268;108766;-72
2022/03/02 02:47:45;;;;;;;80.40;30.90;;;;;;;-6.11;58.30;101413.08;130352;1268;108783;-73
2022/03/02 02:50:51;;;;;;;74.30;30.00;;;;;;;-6.22;57.64;101409.91;130336;1268;108811;-76
2022/03/02 02:53:56;;;;;;;77.50;30.00;;;;;;;-6.38;57.88;101409.06;130374;1268;108778;-74
2022/03/02 02:57:04;;;;;;;84.40;32.60;;;;;;;-6.34;58.34;101416.11;130363;1268;109164;-73
2022/03/02 03:00:15;;;;;;;145.70;49.30;;;;;;;-6.31;58.11;101415.91;130365;1268;108975;-72
2022/03/02 03:03:21;;;;;;;118.00;42.10;;;;;;;-6.41;57.97;101407.35;130365;1268;108869;-71
2022/03/02 03:06:26;;;;;;;90.20;35.10;;;;;;;-6.38;58.29;101405.60;130337;1268;108854;-71
2022/03/02 03:09:33;;;;;;;85.80;33.40;;;;;;;-6.34;58.42;101410.75;130308;1268;108137;-70
2022/03/02 03:12:39;;;;;;;85.10;32.90;;;;;;;-6.33;58.52;101414.38;130266;1268;108848;-70
2022/03/02 03:15:45;;;;;;;89.20;34.50;;;;;;;-6.32;58.31;101409.16;130397;1268;108990;-71
2022/03/02 03:18:50;;;;;;;87.90;32.20;;;;;;;-6.35;58.23;101405.38;130234;1268;108680;-70
2022/03/02 03:21:56;;;;;;;80.40;32.40;;;;;;;-6.34;58.43;101402.25;130249;1268;108768;-70
2022/03/02 03:25:01;;;;;;;77.30;32.70;;;;;;;-6.29;58.50;101402.38;130255;1268;108652;-71
2022/03/02 03:28:07;;;;;;;76.80;31.10;;;;;;;-6.27;58.55;101399.06;130317;1268;108758;-71
2022/03/02 03:31:13;;;;;;;80.10;30.80;;;;;;;-6.30;58.44;101395.45;130385;1268;108910;-72
2022/03/02 03:34:18;;;;;;;70.60;29.90;;;;;;;-6.37;58.85;101394.16;130348;1268;108780;-72
2022/03/02 03:37:23;;;;;;;74.30;31.20;;;;;;;-6.41;58.82;101392.99;130355;1267;108978;-72
2022/03/02 03:40:29;;;;;;;78.10;31.20;;;;;;;-6.38;58.47;101394.00;130356;1268;108734;-74
2022/03/02 03:43:34;;;;;;;74.20;28.40;;;;;;;-6.41;58.20;101395.23;130340;1268;108663;-73
2022/03/02 03:46:40;;;;;;;62.30;27.20;;;;;;;-6.48;58.47;101392.55;130369;1268;108708;-72
2022/03/02 03:49:46;;;;;;;78.80;31.30;;;;;;;-6.45;58.76;101389.39;130264;1268;108943;-72
2022/03/02 03:52:51;;;;;;;73.10;29.10;;;;;;;-6.40;59.07;101385.71;130336;1268;108706;-72
2022/03/02 03:55:57;;;;;;;70.60;28.20;;;;;;;-6.33;58.76;101386.31;130332;1268;107060;-71
2022/03/02 03:59:03;;;;;;;62.20;27.10;;;;;;;-6.23;58.32;101385.34;130303;1267;109023;-72
2022/03/02 04:02:09;;;;;;;69.00;26.80;;;;;;;-6.12;58.34;101377.75;130284;1268;106987;-71
2022/03/02 04:05:15;;;;;;;71.70;28.50;;;;;;;-6.07;58.54;101375.77;130323;1268;108864;-71
2022/03/02 04:08:22;;;;;;;65.10;26.20;;;;;;;-6.00;58.80;101373.09;130322;1268;108637;-71
2022/03/02 04:11:28;;;;;;;67.70;27.50;;;;;;;-6.01;58.38;101372.59;130313;1268;108773;-71
2022/03/02 04:14:33;;;;;;;70.70;28.10;;;;;;;-6.13;57.50;101376.55;130335;1268;108694;-72
2022/03/02 04:17:39;;;;;;;67.40;28.70;;;;;;;-6.20;58.69;101375.42;130249;1268;108653;-73
2022/03/02 04:20:44;;;;;;;69.90;29.00;;;;;;;-6.16;58.57;101371.05;130369;1268;107742;-72
2022/03/02 04:23:50;;;;;;;70.10;28.20;;;;;;;-6.16;58.20;101365.67;130338;1268;108951;-72
2022/03/02 04:26:56;;;;;;;73.70;28.60;;;;;;;-6.19;58.21;101367.26;130329;1268;108810;-71
2022/03/02 04:30:02;;;;;;;72.70;29.60;;;;;;;-6.19;58.84;101362.09;130308;1268;109568;-71
2022/03/02 04:33:08;;;;;;;68.60;27.70;;;;;;;-6.25;58.59;101362.85;130336;1268;108710;-72
2022/03/02 04:36:14;;;;;;;74.70;29.80;;;;;;;-6.28;58.80;101358.38;130335;1268;107331;-75
2022/03/02 04:39:19;;;;;;;74.20;29.40;;;;;;;-6.29;58.68;101359.44;130244;1268;108585;-72
2022/03/02 04:42:25;;;;;;;75.70;29.80;;;;;;;-6.30;58.65;101353.55;130338;1268;108632;-72
2022/03/02 04:45:30;;;;;;;74.90;31.20;;;;;;;-6.32;58.20;101349.42;130380;1268;108869;-74
2022/03/02 04:48:36;;;;;;;72.90;29.50;;;;;;;-6.32;58.37;101350.81;130303;1268;108880;-71
2022/03/02 04:51:41;;;;;;;76.70;29.40;;;;;;;-6.32;58.70;101352.02;130308;1268;108666;-72
2022/03/02 04:58:10;;;;;;;76.50;29.30;;;;;;;-6.35;58.57;101349.80;130347;1268;109096;-72
2022/03/02 05:01:15;;;;;;;71.20;28.60;;;;;;;-6.36;58.96;101347.75;130411;1267;108636;-72
2022/03/02 05:04:21;;;;;;;77.80;28.30;;;;;;;-6.41;58.48;101347.64;130384;1268;107073;-71
2022/03/02 05:07:26;;;;;;;70.40;28.70;;;;;;;-6.50;58.54;101348.61;130281;1268;108728;-72
2022/03/02 05:10:32;;;;;;;73.90;28.80;;;;;;;-6.52;58.90;101346.73;130270;1268;108738;-75
2022/03/02 05:13:37;;;;;;;75.60;28.70;;;;;;;-6.53;58.93;101349.84;130308;1268;108752;-72
2022/03/02 05:16:42;;;;;;;73.50;29.70;;;;;;;-6.53;58.81;101348.12;130190;1268;108879;-72
2022/03/02 05:19:48;;;;;;;73.40;28.60;;;;;;;-6.56;58.57;101344.52;130181;1268;109546;-71
2022/03/02 05:22:54;;;;;;;69.90;29.60;;;;;;;-6.60;58.54;101341.61;130284;1268;108866;-72
2022/03/02 05:25:59;;;;;;;60.10;26.50;;;;;;;-6.67;58.45;101339.28;130279;1268;108592;-72
2022/03/02 05:29:05;;;;;;;67.70;25.70;;;;;;;-6.86;58.43;101337.08;130221;1268;108809;-75
2022/03/02 05:32:11;;;;;;;60.20;24.60;;;;;;;-6.91;58.53;101338.31;130302;1268;108720;-75
2022/03/02 05:35:16;;;;;;;60.50;25.30;;;;;;;-6.80;58.92;101332.85;130263;1268;108740;-74
2022/03/02 05:38:21;;;;;;;63.20;24.80;;;;;;;-6.66;58.78;101331.66;130108;1271;108785;-71
2022/03/02 05:41:27;;;;;;;65.70;26.40;;;;;;;-6.53;58.57;101333.06;130149;1268;107183;-72
2022/03/02 05:44:33;;;;;;;58.60;26.20;;;;;;;-6.38;59.23;101334.27;130284;1268;108881;-73
2022/03/02 05:47:40;;;;;;;62.80;26.70;;;;;;;-6.24;58.66;101334.27;130242;1268;108766;-73
2022/03/02 05:50:46;;;;;;;74.50;27.80;;;;;;;-6.13;58.46;101336.02;130113;1270;108897;-71
2022/03/02 05:53:51;;;;;;;81.30;31.00;;;;;;;-6.03;58.75;101335.54;130224;1268;108740;-72
2022/03/02 05:56:57;;;;;;;85.80;33.10;;;;;;;-5.95;59.25;101331.77;130244;1268;109150;-71
2022/03/02 06:00:04;;;;;;;87.60;34.30;;;;;;;-5.89;58.60;101332.03;130263;1268;108956;-72
2022/03/02 06:03:10;;;;;;;100.70;37.90;;;;;;;-5.85;59.01;101326.60;130327;1268;108689;-75
2022/03/02 06:06:16;;;;;;;82.90;32.20;;;;;;;-5.80;59.20;101324.80;130561;1268;108603;-72
2022/03/02 06:09:22;;;;;;;74.80;30.30;;;;;;;-5.78;58.96;101322.33;130207;1268;107732;-75
2022/03/02 06:12:29;;;;;;;77.90;33.70;;;;;;;-5.76;59.19;101326.65;130382;1268;108542;-73
2022/03/02 06:15:36;;;;;;;74.10;33.00;;;;;;;-5.82;58.83;101327.77;130311;1268;108931;-73
2022/03/02 06:18:42;;;;;;;75.90;32.10;;;;;;;-5.83;59.23;101326.21;130362;1268;108644;-73
2022/03/02 06:21:50;;;;;;;76.10;32.00;;;;;;;-5.75;58.98;101321.09;130228;1268;108838;-73
2022/03/02 06:24:57;;;;;;;94.10;37.30;;;;;;;-5.67;59.28;101321.98;130360;1268;108893;-72
2022/03/02 06:28:03;;;;;;;119.10;41.10;;;;;;;-5.70;59.46;101322.56;130130;1266;108846;-72
2022/03/02 06:31:09;;;;;;;100.50;37.10;;;;;;;-5.65;59.71;101323.00;130235;1270;108809;-71
2022/03/02 06:34:15;;;;;;;172.80;48.00;;;;;;;-5.57;59.75;101319.92;130439;1268;107004;-72
2022/03/02 06:37:20;;;;;;;127.80;40.50;;;;;;;-5.55;59.34;101321.27;130345;1268;109837;-73
2022/03/02 06:40:26;;;;;;;101.80;37.90;;;;;;;-5.62;59.50;101321.20;130347;1268;108835;-72
2022/03/02 06:43:39;;;;;;;91.40;35.70;;;;;;;-5.58;60.04;101317.69;130376;1267;108700;-72
2022/03/02 06:46:55;;;;;;;87.40;33.00;;;;;;;-5.56;60.48;101314.88;130484;1268;108714;-72
2022/03/02 06:50:07;;;;;;;87.50;33.20;;;;;;;-5.56;60.39;101318.02;130366;1268;108881;-73
2022/03/02 06:53:14;;;;;;;95.20;39.10;;;;;;;-5.54;60.46;101318.84;130290;1268;107548;-73
2022/03/02 06:56:22;;;;;;;119.00;47.40;;;;;;;-5.50;61.13;101315.48;130401;1268;108853;-74
2022/03/02 06:59:35;;;;;;;132.00;50.60;;;;;;;-5.39;61.42;101315.82;130320;1268;109083;-73
2022/03/02 07:02:48;;;;;;;118.80;44.10;;;;;;;-5.28;61.76;101316.49;130351;1268;108707;-73
2022/03/02 07:05:54;;;;;;;111.00;45.00;;;;;;;-5.17;61.77;101312.49;130405;1268;108871;-75
2022/03/02 07:09:01;;;;;;;125.50;46.90;;;;;;;-5.06;62.09;101305.01;130287;1268;107714;-75
2022/03/02 07:12:09;;;;;;;119.50;49.40;;;;;;;-4.90;62.63;101304.55;130259;1268;108580;-73
2022/03/02 07:15:15;;;;;;;189.50;68.20;;;;;;;-4.70;62.70;101305.02;130285;1268;108886;-74
2022/03/02 07:18:21;;;;;;;208.20;77.90;;;;;;;-4.54;62.77;101299.14;130260;1268;108532;-74
2022/03/02 07:21:29;;;;;;;103.00;43.80;;;;;;;-4.36;63.19;101296.88;130226;1268;108868;-74
2022/03/02 07:24:41;;;;;;;321.90;104.50;;;;;;;-4.12;63.22;101294.27;130239;1268;108871;-74
2022/03/02 07:27:46;;;;;;;134.50;56.60;;;;;;;-3.87;63.54;101293.02;130269;1268;108755;-75
2022/03/02 07:30:57;;;;;;;91.50;38.20;;;;;;;-3.57;63.89;101289.86;130248;1268;108730;-75
2022/03/02 07:34:04;;;;;;;69.80;30.70;;;;;;;-3.22;63.71;101288.98;130287;1268;108857;-74
2022/03/02 07:37:10;;;;;;;67.50;27.90;;;;;;;-2.90;63.46;101284.46;130328;1268;108671;-74
2022/03/02 07:40:17;;;;;;;190.10;74.70;;;;;;;-2.59;63.35;101284.85;130290;1268;108740;-75
2022/03/02 07:43:23;;;;;;;92.90;43.80;;;;;;;-2.33;63.36;101282.00;130240;1268;108853;-74
2022/03/02 07:46:29;;;;;;;82.10;34.80;;;;;;;-2.13;63.57;101277.92;130274;1268;108960;-74
2022/03/02 07:49:35;;;;;;;97.00;42.80;;;;;;;-1.98;62.96;101272.03;130266;1268;106881;-74
2022/03/02 07:52:46;;;;;;;90.50;38.40;;;;;;;-1.83;63.03;101262.52;130261;1268;108562;-74
2022/03/02 07:55:55;;;;;;;79.30;34.70;;;;;;;-1.70;62.71;101259.64;130245;1268;109155;-74
2022/03/02 07:59:04;;;;;;;72.50;35.50;;;;;;;-1.60;62.90;101257.56;130207;1271;108698;-74
2022/03/02 08:02:12;;;;;;;76.90;34.90;;;;;;;-1.50;62.97;101252.36;130208;1268;108704;-75
2022/03/02 08:05:18;;;;;;;72.90;35.00;;;;;;;-1.39;63.13;101252.16;130292;1268;108867;-74
2022/03/02 08:08:24;;;;;;;68.20;34.70;;;;;;;-1.29;62.77;101248.51;130292;1268;107442;-73
2022/03/02 08:11:33;;;;;;;64.60;30.10;;;;;;;-1.21;62.70;101246.83;130263;1268;108871;-75
2022/03/02 08:14:39;;;;;;;64.10;29.80;;;;;;;-1.11;62.46;101245.09;130228;1268;108888;-75
2022/03/02 08:17:45;;;;;;;107.40;57.10;;;;;;;-1.04;62.46;101246.23;130051;1271;196325;-75
2022/03/02 08:20:53;;;;;;;83.60;43.20;;;;;;;-0.94;62.67;101242.73;130304;1268;108774;-75
2022/03/02 08:24:02;;;;;;;55.00;27.60;;;;;;;-0.83;62.36;101244.96;130238;1268;107622;-74
2022/03/02 08:27:10;;;;;;;55.20;27.70;;;;;;;-0.73;62.08;101244.93;130194;1268;108894;-75
2022/03/02 08:30:16;;;;;;;51.10;25.70;;;;;;;-0.62;62.57;101243.83;130272;1268;108777;-74
2022/03/02 08:33:27;;;;;;;56.60;28.10;;;;;;;-0.51;62.27;101243.45;130236;1268;108758;-75
2022/03/02 08:36:34;;;;;;;86.60;37.50;;;;;;;-0.44;62.72;101235.46;130248;1268;108944;-74
2022/03/02 08:39:39;;;;;;;90.50;34.20;;;;;;;-0.35;62.80;101237.08;130241;1268;109286;-75
2022/03/02 08:42:47;;;;;;;57.90;27.70;;;;;;;-0.26;62.84;101230.77;130261;1268;108894;-74
2022/03/02 08:45:53;;;;;;;67.20;34.30;;;;;;;-0.14;62.55;101233.27;130260;1268;108551;-75
2022/03/02 08:48:59;;;;;;;58.20;30.20;;;;;;;-0.06;62.50;101233.84;130232;1268;108806;-74
2022/03/02 08:52:05;;;;;;;65.90;32.20;;;;;;;0.01;62.48;101230.94;130246;1268;108718;-75
2022/03/02 08:55:11;;;;;;;52.10;27.30;;;;;;;0.10;62.34;101236.16;130242;1268;106833;-75
2022/03/02 08:58:17;;;;;;;51.80;27.30;;;;;;;0.21;61.71;101233.96;130258;1268;108953;-74
2022/03/02 09:01:23;;;;;;;54.60;27.50;;;;;;;0.31;61.81;101227.29;130294;1268;108990;-74
2022/03/02 09:04:35;;;;;;;39.60;21.90;;;;;;;0.40;61.48;101226.52;130233;1270;108590;-75
2022/03/02 09:07:41;;;;;;;36.90;20.50;;;;;;;0.48;61.25;101220.96;130257;1268;107620;-76
2022/03/02 09:10:47;;;;;;;36.50;19.80;;;;;;;0.55;60.91;101218.20;130258;1270;108760;-75
2022/03/02 09:13:53;;;;;;;39.40;20.90;;;;;;;0.64;61.10;101212.76;130245;1268;108714;-75
2022/03/02 09:16:59;;;;;;;66.20;36.20;;;;;;;0.74;61.30;101210.55;130248;1268;108774;-74
2022/03/02 09:20:09;;;;;;;51.20;26.50;;;;;;;0.84;61.28;101205.08;130255;1268;109258;-75
2022/03/02 09:23:15;;;;;;;42.60;22.70;;;;;;;0.90;60.47;101200.05;130248;1267;108675;-75
2022/03/02 09:26:22;;;;;;;41.50;23.10;;;;;;;0.99;60.62;101198.08;130228;1268;108775;-76
2022/03/02 09:29:31;;;;;;;45.50;24.20;;;;;;;1.07;60.45;101192.46;130265;1268;108948;-75
2022/03/02 09:32:38;;;;;;;44.30;23.90;;;;;;;1.16;60.72;101191.35;130271;1268;108666;-75
2022/03/02 09:35:46;;;;;;;41.60;21.30;;;;;;;1.24;60.39;101190.67;130242;1268;108997;-75
2022/03/02 09:38:53;;;;;;;33.80;18.00;;;;;;;1.29;59.25;101185.15;130284;1271;108902;-75
2022/03/02 09:42:04;;;;;;;31.80;17.40;;;;;;;1.32;59.33;101180.29;130342;1268;106990;-75
2022/03/02 09:45:12;;;;;;;31.50;16.20;;;;;;;1.41;59.76;101179.73;130346;1267;108843;-73
2022/03/02 09:48:29;;;;;;;31.50;16.60;;;;;;;1.48;59.53;101174.27;130250;1268;109044;-74
2022/03/02 09:51:37;;;;;;;30.00;17.10;;;;;;;1.57;59.05;101172.45;130323;1268;109050;-75
2022/03/02 09:54:47;;;;;;;29.80;16.40;;;;;;;1.66;59.42;101167.33;130371;1268;108971;-76
2022/03/02 09:57:55;;;;;;;27.80;16.10;;;;;;;1.73;58.45;101165.23;130328;1268;108842;-76
2022/03/02 10:01:01;;;;;;;27.30;15.40;;;;;;;1.80;58.32;101161.20;130366;1268;108775;-75
2022/03/02 10:04:21;;;;;;;25.50;14.00;;;;;;;1.83;57.54;101157.73;130400;1268;108712;-76
2022/03/02 10:07:30;;;;;;;28.10;14.00;;;;;;;1.88;56.91;101155.54;130277;1268;108573;-76
2022/03/02 10:10:41;;;;;;;24.90;13.70;;;;;;;1.94;58.04;101152.98;130276;1268;109090;-75
2022/03/02 10:13:47;;;;;;;22.10;14.90;;;;;;;2.02;58.48;101143.09;130279;1268;108729;-76
2022/03/02 10:16:58;;;;;;;23.60;13.30;;;;;;;2.09;58.40;101141.73;130269;1268;108690;-75
2022/03/02 10:20:07;;;;;;;24.50;13.10;;;;;;;2.15;56.27;101140.54;130283;1268;108777;-76
2022/03/02 10:23:32;;;;;;;21.90;12.80;;;;;;;2.17;55.28;101140.23;130313;1268;108890;-76
2022/03/02 10:26:50;;;;;;;67.70;27.60;;;;;;;2.23;55.84;101131.15;130275;1270;108811;-76
2022/03/02 10:30:05;;;;;;;30.60;15.00;;;;;;;2.29;56.88;101128.78;130281;1268;108615;-76
2022/03/02 10:33:26;;;;;;;25.60;13.30;;;;;;;2.39;57.27;101124.20;130341;1268;108947;-76
2022/03/02 10:36:34;;;;;;;21.50;12.10;;;;;;;2.46;56.85;101118.40;130334;1268;108664;-76
2022/03/02 10:40:20;;;;;;;24.70;13.60;;;;;;;2.52;56.68;101113.86;130286;1268;107048;-76
2022/03/02 10:43:36;;;;;;;21.10;12.40;;;;;;;2.58;55.36;101112.32;130359;1268;108825;-76
2022/03/02 10:46:47;;;;;;;21.70;12.20;;;;;;;2.61;54.37;101107.09;130359;1268;108777;-76
2022/03/02 10:49:54;;;;;;;22.40;11.80;;;;;;;2.65;55.82;101100.55;130356;1268;108816;-76
2022/03/02 10:53:03;;;;;;;21.40;11.70;;;;;;;2.71;55.08;101096.88;130328;1268;108709;-76
2022/03/02 10:56:09;;;;;;;17.80;10.70;;;;;;;2.76;54.66;101089.40;130291;1268;108900;-77
2022/03/02 10:59:20;;;;;;;35.30;18.80;;;;;;;2.80;54.84;101084.14;130340;1268;109034;-76
2022/03/02 11:02:26;;;;;;;21.00;11.80;;;;;;;2.83;53.77;101072.36;130328;1268;108671;-75
2022/03/02 11:05:33;;;;;;;17.60;10.40;;;;;;;2.87;53.45;101073.87;130344;1267;106881;-75
2022/03/02 11:08:39;;;;;;;18.20;10.20;;;;;;;2.88;53.31;101070.33;130242;1268;108949;-75
2022/03/02 11:11:45;;;;;;;17.60;10.10;;;;;;;2.90;53.78;101067.04;130391;1267;108638;-75
2022/03/02 11:14:58;;;;;;;18.50;9.80;;;;;;;2.96;53.35;101065.83;130379;1267;108657;-76
2022/03/02 11:18:04;;;;;;;16.40;9.40;;;;;;;3.01;54.48;101057.15;130312;1267;108682;-75
2022/03/02 11:21:13;;;;;;;16.80;10.10;;;;;;;3.05;54.43;101050.39;130325;1268;108716;-76
2022/03/02 11:24:20;;;;;;;84.00;35.90;;;;;;;3.10;54.77;101041.85;130353;1268;108663;-76
2022/03/02 11:27:31;;;;;;;23.90;12.60;;;;;;;3.16;53.61;101043.64;130253;1268;108745;-76
2022/03/02 11:30:39;;;;;;;25.70;14.60;;;;;;;3.21;54.06;101045.67;130370;1268;108881;-76
2022/03/02 11:33:44;;;;;;;20.80;11.30;;;;;;;3.24;53.39;101044.44;130347;1268;109166;-76
2022/03/02 11:36:51;;;;;;;20.70;11.20;;;;;;;3.25;52.44;101047.21;130324;1267;108723;-76
2022/03/02 11:39:57;;;;;;;19.30;10.40;;;;;;;3.26;52.46;101047.87;130349;1268;106759;-75
2022/03/02 11:43:15;;;;;;;25.00;12.80;;;;;;;3.29;52.85;101038.52;130299;1268;108717;-77
2022/03/02 11:46:20;;;;;;;22.80;13.00;;;;;;;3.33;52.08;101031.42;130325;1268;108829;-75
2022/03/02 11:49:41;;;;;;;21.40;12.30;;;;;;;3.40;52.52;101032.98;130418;1268;108428;-75
2022/03/02 11:52:48;;;;;;;19.90;11.30;;;;;;;3.42;52.30;101027.56;130356;1268;108667;-75
2022/03/02 11:55:55;;;;;;;21.40;11.30;;;;;;;3.47;52.08;101019.89;130362;1268;108854;-76
2022/03/02 11:59:04;;;;;;;19.20;10.60;;;;;;;3.49;51.65;101019.97;130348;1267;109362;-76
2022/03/02 12:02:17;;;;;;;16.80;10.60;;;;;;;3.55;51.20;101018.91;130318;1268;108916;-76
2022/03/02 12:05:27;;;;;;;18.70;10.60;;;;;;;3.56;51.05;101009.02;130346;1268;108473;-74
2022/03/02 12:08:35;;;;;;;19.10;11.60;;;;;;;3.57;50.47;101003.50;130325;1268;108687;-76
2022/03/02 12:11:41;;;;;;;21.60;11.20;;;;;;;3.61;50.29;100999.41;130355;1268;108655;-76
2022/03/02 12:14:49;;;;;;;21.80;11.10;;;;;;;3.59;50.25;100994.96;130281;1267;107377;-76
2022/03/02 12:18:10;;;;;;;19.50;11.50;;;;;;;3.62;50.84;100995.66;130377;1268;107183;-76
2022/03/02 12:21:19;;;;;;;19.80;10.90;;;;;;;3.62;50.61;100992.64;130323;1268;108907;-75
2022/03/02 12:24:30;;;;;;;19.60;10.80;;;;;;;3.67;51.91;100992.15;130381;1267;108935;-76
2022/03/02 12:27:36;;;;;;;103.70;56.90;;;;;;;3.73;52.05;100981.09;130433;1268;109216;-76
2022/03/02 12:30:42;;;;;;;33.70;19.10;;;;;;;3.74;51.19;100980.66;130359;1268;108050;-76
2022/03/02 12:33:47;;;;;;;22.10;13.30;;;;;;;3.81;50.91;100975.88;130344;1268;108901;-76
2022/03/02 12:36:53;;;;;;;27.10;13.30;;;;;;;3.84;51.19;100970.41;130353;1268;108863;-76
2022/03/02 12:39:58;;;;;;;23.20;12.80;;;;;;;3.85;51.35;100970.55;130311;1268;108863;-76
2022/03/02 12:43:04;;;;;;;22.10;12.70;;;;;;;3.86;50.72;100970.10;130271;1265;108769;-76
2022/03/02 12:46:10;;;;;;;20.60;12.00;;;;;;;3.88;50.10;100969.12;130197;1269;108868;-76
2022/03/02 12:49:15;;;;;;;20.70;12.00;;;;;;;3.85;50.47;100967.02;130227;1267;108756;-75
2022/03/02 12:52:22;;;;;;;21.70;12.70;;;;;;;3.89;50.58;100967.67;130277;1268;108922;-76
2022/03/02 12:55:28;;;;;;;23.20;12.90;;;;;;;3.87;50.04;100961.63;130281;1268;108798;-78
2022/03/02 12:58:34;;;;;;;22.80;12.60;;;;;;;3.83;50.01;100958.15;130250;1268;108773;-75
2022/03/02 13:01:40;;;;;;;22.50;11.30;;;;;;;3.82;48.69;100953.29;130286;1268;109113;-76
2022/03/02 13:04:56;;;;;;;16.70;10.10;;;;;;;3.80;49.08;100948.45;130227;1270;108835;-76
2022/03/02 13:08:29;;;;;;;18.20;10.60;;;;;;;3.80;48.05;100947.06;130320;1268;108712;-76
2022/03/02 13:11:37;;;;;;;38.30;18.50;;;;;;;3.81;48.39;100941.91;130244;1268;108697;-76
2022/03/02 13:14:43;;;;;;;25.40;14.30;;;;;;;3.79;48.11;100939.71;130282;1271;108743;-76
2022/03/02 13:18:08;;;;;;;20.80;11.90;;;;;;;3.80;49.08;100932.98;130257;1268;107242;-76
2022/03/02 13:21:19;;;;;;;17.80;11.00;;;;;;;3.83;48.38;100933.66;130289;1268;108702;-75
2022/03/02 13:24:25;;;;;;;17.80;10.20;;;;;;;3.87;48.47;100930.83;130272;1268;109734;-76
2022/03/02 13:27:30;;;;;;;21.90;12.30;;;;;;;3.88;48.83;100923.16;130250;1268;108683;-76
2022/03/02 13:30:36;;;;;;;25.10;14.60;;;;;;;3.88;48.82;100916.48;130239;1268;108845;-76
2022/03/02 13:34:07;;;;;;;21.20;12.50;;;;;;;3.88;49.26;100914.33;130239;1268;108901;-76
2022/03/02 13:37:13;;;;;;;36.90;22.00;;;;;;;3.93;49.52;100903.68;130396;1267;108973;-75
2022/03/02 13:40:52;;;;;;;22.40;12.80;;;;;;;3.92;48.55;100904.45;130317;1267;108726;-77
2022/03/02 13:44:29;;;;;;;26.20;16.00;;;;;;;3.85;49.43;100892.88;130239;1267;108549;-77
2022/03/02 13:47:36;;;;;;;19.40;11.90;;;;;;;3.89;48.50;100889.12;130253;1268;109003;-77
2022/03/02 13:54:27;;;;;;;22.40;12.70;;;;;;;3.86;47.22;100881.63;125884;1309;636276;-76
2022/03/02 13:57:33;;;;;;;20.40;13.00;;;;;;;3.84;48.65;100878.04;129319;1280;107271;-77
2022/03/02 14:00:39;;;;;;;21.10;13.60;;;;;;;3.83;48.81;100875.46;130108;1270;108758;-76